Terminal Aerodrome Forecast
Issued by NWS

Home | Current Version | Previous Version | Text Only | Print | Product List | Glossary Off
Versions: 1 2 3 4 5 6 7 8 9 10 11 12 13 14 15 16 17

000
FTUS42 KMHX 261740
TAFPGV
TAF
KPGV 261740Z 2618/2718 25009G16KT P6SM SCT025 BKN050
      TEMPO 2618/2619 5SM BR SCT005 BKN015
     FM270000 20008KT P6SM OVC150
     FM270700 21009KT 5SM -RA BR OVC008
      AMD LTD TO CLD VIS AND WIND=

USA.gov is the U.S. government's official web portal to all federal, state and local government web resources and services.